Time;durP1;ratioP1;P1;durP2;ratioP2;P2;SDS_P1;SDS_P2;PMS_P1;PMS_P2;Temp;Humidity;BMP_temperature;BMP_pressure;BME280_temperature;BME280_humidity;BME280_pressure;Samples;Min_cycle;Max_cycle;Signal;HPM_P1;HPM_P2
2023/04/07 00:01:42;;;;;;;10.40;7.70;;;;;;;11.33;54.54;97422.84;5043628;28;20422;-70
2023/04/07 00:04:08;;;;;;;10.93;8.20;;;;;;;11.42;54.54;97432.44;5047639;28;20190;-69
2023/04/07 00:06:33;;;;;;;9.10;7.23;;;;;;;11.35;54.32;97432.22;5047130;28;20483;-69
2023/04/07 00:08:59;;;;;;;10.97;7.90;;;;;;;11.27;54.66;97431.31;5054707;28;20210;-70
2023/04/07 00:11:24;;;;;;;9.13;7.17;;;;;;;11.27;54.95;97429.53;5062555;28;20186;-70
2023/04/07 00:13:50;;;;;;;11.27;7.97;;;;;;;11.29;54.99;97424.13;5050138;28;22097;-69
2023/04/07 00:16:15;;;;;;;8.30;7.50;;;;;;;11.37;54.50;97426.81;5054228;28;20202;-70
2023/04/07 00:18:41;;;;;;;11.23;8.30;;;;;;;11.13;55.75;97425.63;5050256;28;20290;-69
2023/04/07 00:21:06;;;;;;;11.60;7.43;;;;;;;11.25;55.36;97422.78;5057275;28;20207;-69
2023/04/07 00:23:32;;;;;;;11.80;7.70;;;;;;;11.22;55.07;97424.72;5049689;28;20258;-69
2023/04/07 00:25:57;;;;;;;9.20;7.50;;;;;;;11.20;55.42;97424.06;5056182;28;20206;-70
2023/04/07 00:28:22;;;;;;;10.37;8.10;;;;;;;11.18;55.73;97417.31;5043850;28;20187;-68
2023/04/07 00:30:48;;;;;;;9.30;7.50;;;;;;;11.24;55.27;97410.63;5049899;28;20262;-69
2023/04/07 00:33:13;;;;;;;9.07;7.40;;;;;;;11.17;55.89;97413.03;5061590;28;20234;-69
2023/04/07 00:35:39;;;;;;;14.40;7.43;;;;;;;11.19;55.64;97404.06;5053414;28;20310;-69
2023/04/07 00:38:04;;;;;;;9.30;7.93;;;;;;;11.17;55.98;97400.75;5050608;28;20191;-69
2023/04/07 00:40:30;;;;;;;10.27;7.50;;;;;;;11.22;55.58;97395.06;5047025;28;20206;-69
2023/04/07 00:42:56;;;;;;;9.90;7.87;;;;;;;11.02;56.04;97391.75;5050511;28;20189;-67
2023/04/07 00:45:21;;;;;;;8.87;7.87;;;;;;;11.08;56.48;97396.44;5049583;28;20187;-69
2023/04/07 00:47:46;;;;;;;14.33;9.03;;;;;;;11.11;55.93;97393.47;5045912;28;20274;-70
2023/04/07 00:50:12;;;;;;;10.93;8.77;;;;;;;11.07;56.15;97390.34;5063217;28;20277;-72
2023/04/07 00:52:38;;;;;;;10.80;8.10;;;;;;;11.03;56.26;97382.94;5052166;28;20570;-69
2023/04/07 00:55:04;;;;;;;10.20;8.60;;;;;;;10.87;56.61;97389.66;5048356;28;20189;-69
2023/04/07 00:57:30;;;;;;;10.70;8.60;;;;;;;10.93;56.31;97383.00;5050123;28;20452;-70
2023/04/07 00:59:55;;;;;;;12.67;7.80;;;;;;;11.00;56.35;97383.22;5046763;28;20450;-70
2023/04/07 01:02:35;;;;;;;11.20;8.13;;;;;;;11.05;56.77;97378.34;5049578;28;20211;-70
2023/04/07 01:05:21;;;;;;;10.43;7.83;;;;;;;11.09;56.18;97371.00;5050651;28;20178;-70
2023/04/07 01:08:23;;;;;;;14.80;8.70;;;;;;;11.01;56.24;97369.97;5050276;28;20559;-68
2023/04/07 01:10:56;;;;;;;8.50;7.60;;;;;;;10.96;56.10;97368.78;5057254;28;20417;-68
2023/04/07 01:13:26;;;;;;;10.60;7.87;;;;;;;10.97;56.47;97362.53;5051174;28;20467;-70
2023/04/07 01:15:55;;;;;;;12.63;7.20;;;;;;;10.82;56.51;97359.63;5049171;28;20445;-71
2023/04/07 01:18:25;;;;;;;12.67;8.23;;;;;;;10.78;56.51;97353.88;5046831;28;20461;-68
2023/04/07 01:20:51;;;;;;;10.43;7.97;;;;;;;10.75;56.42;97349.75;5055139;28;20418;-68
2023/04/07 01:23:25;;;;;;;9.83;8.20;;;;;;;10.73;56.60;97351.69;5053926;28;20447;-70
2023/04/07 01:26:03;;;;;;;9.20;7.80;;;;;;;10.79;56.69;97350.28;5047554;28;20545;-70
2023/04/07 01:28:50;;;;;;;9.80;7.80;;;;;;;10.77;56.92;97354.84;5011945;28;20433;-69
2023/04/07 01:31:16;;;;;;;10.23;8.40;;;;;;;10.80;57.11;97351.91;5019333;28;20512;-68
2023/04/07 01:33:44;;;;;;;9.33;7.50;;;;;;;10.88;56.75;97354.59;5047291;28;20556;-70
2023/04/07 01:36:11;;;;;;;10.37;7.63;;;;;;;10.78;56.82;97348.63;5052211;28;20233;-70
2023/04/07 01:38:36;;;;;;;10.17;8.70;;;;;;;10.75;56.68;97349.75;5051997;28;20575;-70
2023/04/07 01:41:02;;;;;;;9.90;8.27;;;;;;;10.81;57.13;97343.09;5053844;28;20528;-69
2023/04/07 01:43:30;;;;;;;11.90;8.40;;;;;;;10.84;57.12;97342.75;5048293;28;20290;-70
2023/04/07 01:45:56;;;;;;;10.40;8.17;;;;;;;10.95;56.42;97340.91;5043333;28;21326;-70
2023/04/07 01:48:22;;;;;;;10.63;8.50;;;;;;;10.97;56.43;97331.06;5042175;28;20425;-72
2023/04/07 01:50:48;;;;;;;11.63;8.60;;;;;;;10.93;56.36;97332.38;5048085;28;20501;-69
2023/04/07 01:53:14;;;;;;;9.20;8.07;;;;;;;10.86;56.03;97335.56;5049624;28;20256;-69
2023/04/07 01:55:41;;;;;;;11.13;7.87;;;;;;;10.93;56.27;97329.75;5038868;28;20447;-70
2023/04/07 01:58:07;;;;;;;10.20;8.23;;;;;;;10.88;56.25;97332.81;5060264;28;20434;-69
2023/04/07 02:00:33;;;;;;;9.63;8.07;;;;;;;10.93;56.19;97329.75;5048361;28;20429;-69
2023/04/07 02:03:05;;;;;;;10.80;8.17;;;;;;;10.86;55.74;97330.31;5047921;28;20586;-69
2023/04/07 02:05:31;;;;;;;9.30;7.10;;;;;;;10.90;55.73;97331.69;5041038;28;20236;-70
2023/04/07 02:07:59;;;;;;;11.70;8.93;;;;;;;10.97;55.65;97336.31;5050857;28;20486;-69
2023/04/07 02:10:26;;;;;;;9.80;8.80;;;;;;;10.94;55.89;97324.34;5049491;28;20418;-69
2023/04/07 02:12:52;;;;;;;9.90;7.90;;;;;;;10.91;56.31;97325.47;5046246;28;21188;-69
2023/04/07 02:15:18;;;;;;;12.50;8.90;;;;;;;10.84;56.50;97321.78;5039776;28;20421;-69
2023/04/07 02:17:51;;;;;;;8.83;7.93;;;;;;;10.87;56.63;97315.44;5046479;28;20210;-70
2023/04/07 02:20:17;;;;;;;13.00;7.93;;;;;;;10.83;56.36;97309.69;5047161;28;20295;-70
2023/04/07 02:22:46;;;;;;;9.30;8.00;;;;;;;10.80;56.38;97309.97;5054951;28;20413;-70
2023/04/07 02:25:25;;;;;;;11.00;8.70;;;;;;;10.84;56.01;97306.06;5030500;28;20903;-71
2023/04/07 02:27:51;;;;;;;11.87;8.57;;;;;;;10.87;55.81;97311.00;5054369;28;20432;-69
2023/04/07 02:30:16;;;;;;;11.47;8.43;;;;;;;10.85;55.98;97306.91;5033845;28;20425;-70
2023/04/07 02:32:42;;;;;;;9.60;7.93;;;;;;;10.71;56.53;97303.03;5047101;28;20285;-70
2023/04/07 02:35:07;;;;;;;10.67;8.60;;;;;;;10.82;55.89;97302.78;5044227;28;20808;-70
2023/04/07 02:37:33;;;;;;;9.70;8.03;;;;;;;10.83;55.76;97296.56;5046054;28;20194;-69
2023/04/07 02:39:58;;;;;;;10.40;8.07;;;;;;;10.75;55.69;97299.09;5044914;28;20239;-70
2023/04/07 02:42:24;;;;;;;12.70;8.80;;;;;;;10.80;56.03;97296.88;5042845;28;20420;-70
2023/04/07 02:44:49;;;;;;;10.50;8.30;;;;;;;10.67;55.62;97291.19;5036445;28;20196;-69
2023/04/07 02:47:15;;;;;;;11.43;9.70;;;;;;;10.68;55.43;97291.03;5038150;28;20381;-69
2023/04/07 02:49:40;;;;;;;11.20;8.73;;;;;;;10.73;55.37;97287.94;5044289;28;20182;-69
2023/04/07 02:52:06;;;;;;;10.77;9.10;;;;;;;10.77;55.60;97286.69;5034923;28;20270;-69
2023/04/07 02:54:31;;;;;;;12.50;8.00;;;;;;;10.74;55.56;97286.97;5045191;28;20199;-69
2023/04/07 02:56:56;;;;;;;9.87;8.30;;;;;;;10.73;55.43;97280.91;5044972;28;20289;-69
2023/04/07 02:59:22;;;;;;;12.07;8.73;;;;;;;10.73;55.81;97280.06;5057640;28;20209;-68
2023/04/07 03:01:48;;;;;;;11.13;8.83;;;;;;;10.65;55.49;97280.81;5045095;28;20294;-69
2023/04/07 03:04:13;;;;;;;11.00;8.63;;;;;;;10.65;55.20;97277.41;5056620;28;20187;-69
2023/04/07 03:06:39;;;;;;;15.10;9.30;;;;;;;10.57;55.44;97273.75;5051631;28;20202;-69
2023/04/07 03:09:04;;;;;;;10.20;8.47;;;;;;;10.55;55.61;97272.22;5051327;28;20197;-70
2023/04/07 03:11:30;;;;;;;11.90;8.77;;;;;;;10.64;55.25;97275.75;5051725;28;20197;-69
2023/04/07 03:13:55;;;;;;;10.20;8.70;;;;;;;10.71;55.55;97275.00;5054417;28;20269;-69
2023/04/07 03:16:21;;;;;;;12.03;8.90;;;;;;;10.81;55.56;97276.69;5051014;28;20211;-69
2023/04/07 03:18:46;;;;;;;11.20;8.53;;;;;;;10.85;55.22;97275.44;5045891;28;20213;-71
2023/04/07 03:21:12;;;;;;;12.00;8.80;;;;;;;10.83;54.82;97272.97;5055172;28;20278;-68
2023/04/07 03:23:37;;;;;;;12.47;8.80;;;;;;;10.87;54.94;97269.06;5051631;28;20187;-69
2023/04/07 03:26:03;;;;;;;10.37;8.60;;;;;;;10.91;54.97;97270.41;5053611;28;20729;-69
2023/04/07 03:28:28;;;;;;;11.40;8.43;;;;;;;10.95;54.90;97270.91;5051297;28;20179;-70
2023/04/07 03:30:54;;;;;;;11.90;8.00;;;;;;;11.00;54.86;97270.44;5034493;28;20718;-69
2023/04/07 03:33:19;;;;;;;9.80;7.90;;;;;;;10.98;54.53;97260.13;5039073;28;20200;-70
2023/04/07 03:35:45;;;;;;;13.27;8.23;;;;;;;10.86;54.79;97259.53;5041536;28;20724;-71
2023/04/07 03:38:10;;;;;;;10.80;9.10;;;;;;;10.78;55.23;97259.50;5046217;28;20618;-69
2023/04/07 03:40:36;;;;;;;11.33;8.80;;;;;;;10.86;55.19;97256.91;5038539;28;20190;-69
2023/04/07 03:43:02;;;;;;;11.63;8.67;;;;;;;10.88;55.38;97259.41;5042717;28;21450;-70
2023/04/07 03:45:27;;;;;;;11.23;8.30;;;;;;;10.81;55.48;97256.56;5045778;28;20191;-69
2023/04/07 03:47:53;;;;;;;14.60;9.17;;;;;;;10.91;55.40;97259.91;5035076;28;20265;-69
2023/04/07 03:50:18;;;;;;;13.53;10.00;;;;;;;11.03;55.02;97251.78;5035946;28;20202;-69
2023/04/07 03:52:44;;;;;;;12.40;8.70;;;;;;;11.05;54.87;97250.66;5037644;28;20277;-69
2023/04/07 03:55:09;;;;;;;10.67;8.70;;;;;;;11.08;54.63;97244.31;5038129;28;20179;-69
2023/04/07 03:57:35;;;;;;;10.00;9.00;;;;;;;10.95;55.09;97249.94;5047589;28;20294;-69
2023/04/07 04:00:01;;;;;;;11.07;8.70;;;;;;;10.95;54.82;97249.94;5038865;28;20293;-69
2023/04/07 04:02:26;;;;;;;11.87;8.83;;;;;;;10.91;55.03;97244.19;5037150;28;20198;-68
2023/04/07 04:04:51;;;;;;;10.40;8.60;;;;;;;10.95;54.70;97236.00;5051285;28;20187;-69
2023/04/07 04:07:17;;;;;;;10.90;9.50;;;;;;;10.99;54.80;97239.97;5034950;28;20248;-69
2023/04/07 04:09:42;;;;;;;10.57;8.40;;;;;;;10.93;54.95;97245.84;5045863;28;20680;-70
2023/04/07 04:12:08;;;;;;;9.57;7.97;;;;;;;11.02;54.49;97243.13;5052593;28;20259;-68
2023/04/07 04:14:33;;;;;;;12.47;8.73;;;;;;;11.03;54.43;97242.13;5049921;28;20257;-68
2023/04/07 04:16:59;;;;;;;11.47;9.63;;;;;;;11.04;54.35;97242.94;5038003;28;20277;-68
2023/04/07 04:19:25;;;;;;;9.40;7.60;;;;;;;11.08;54.60;97239.06;5049242;28;20242;-69
2023/04/07 04:21:50;;;;;;;11.13;9.07;;;;;;;11.05;54.27;97234.09;5036115;28;20190;-69
2023/04/07 04:24:16;;;;;;;11.63;9.00;;;;;;;10.95;54.56;97238.63;5056835;28;20194;-69
2023/04/07 04:26:41;;;;;;;9.20;8.13;;;;;;;10.88;54.92;97228.75;5049163;28;20289;-69
2023/04/07 04:29:06;;;;;;;12.47;9.10;;;;;;;10.91;54.84;97228.44;5048231;28;20689;-69
2023/04/07 04:31:32;;;;;;;11.20;8.80;;;;;;;10.97;55.23;97228.78;5046633;28;20201;-69
2023/04/07 04:33:58;;;;;;;15.33;11.37;;;;;;;10.87;55.49;97226.28;5048672;28;20187;-69
2023/04/07 04:36:23;;;;;;;14.87;10.37;;;;;;;10.95;55.33;97230.78;5044066;28;20218;-68
2023/04/07 04:38:48;;;;;;;14.37;10.67;;;;;;;10.93;54.98;97233.53;5045128;28;20195;-69
2023/04/07 04:41:14;;;;;;;16.87;12.57;;;;;;;10.88;54.72;97231.38;5042016;28;20269;-69
2023/04/07 04:43:40;;;;;;;22.23;14.97;;;;;;;10.91;54.93;97233.69;5056810;28;20325;-68
2023/04/07 04:46:05;;;;;;;22.50;14.47;;;;;;;11.02;54.64;97234.41;5040525;28;21300;-69
2023/04/07 04:48:31;;;;;;;20.73;14.60;;;;;;;10.96;54.73;97227.97;5049315;28;20565;-70
2023/04/07 04:50:56;;;;;;;11.13;9.00;;;;;;;10.81;54.85;97235.59;5051408;28;20655;-69
2023/04/07 04:53:21;;;;;;;12.10;9.50;;;;;;;10.77;55.13;97231.63;5046783;28;20615;-70
2023/04/07 04:55:50;;;;;;;12.70;9.40;;;;;;;10.70;55.26;97233.22;5051933;28;20211;-69
2023/04/07 04:58:17;;;;;;;13.53;9.23;;;;;;;10.80;55.26;97238.34;5045636;28;20214;-69
2023/04/07 05:00:43;;;;;;;10.20;8.90;;;;;;;10.77;55.18;97231.63;5043719;28;20434;-69
2023/04/07 05:03:08;;;;;;;10.43;8.70;;;;;;;10.75;55.31;97236.19;5057582;28;20481;-68
2023/04/07 05:05:34;;;;;;;11.33;9.07;;;;;;;10.76;55.23;97235.22;5051698;28;20336;-69
2023/04/07 05:07:59;;;;;;;10.13;8.17;;;;;;;10.85;55.27;97234.28;5054604;28;20186;-69
2023/04/07 05:10:25;;;;;;;13.27;9.47;;;;;;;10.90;54.87;97239.91;5043117;28;20183;-69
2023/04/07 05:12:50;;;;;;;10.10;8.40;;;;;;;10.96;54.88;97235.03;5053424;28;20186;-68
2023/04/07 05:15:16;;;;;;;11.50;8.70;;;;;;;10.99;54.62;97232.09;5056740;28;20187;-71
2023/04/07 05:17:41;;;;;;;10.87;9.00;;;;;;;10.80;55.37;97241.81;5048820;28;20213;-70
2023/04/07 05:20:09;;;;;;;11.50;8.80;;;;;;;10.82;55.26;97247.72;5048862;28;20211;-70
2023/04/07 05:22:35;;;;;;;12.43;8.70;;;;;;;10.86;55.06;97243.81;5038813;28;20952;-72
2023/04/07 05:25:00;;;;;;;11.23;9.00;;;;;;;10.83;55.28;97246.75;5046427;28;20414;-71
2023/04/07 05:27:26;;;;;;;12.80;9.93;;;;;;;10.87;54.44;97247.25;5052311;28;20437;-69
2023/04/07 05:29:51;;;;;;;10.23;8.53;;;;;;;10.95;54.28;97242.06;5036712;28;20229;-69
2023/04/07 05:32:17;;;;;;;11.83;9.40;;;;;;;10.98;54.30;97241.78;5049951;28;20190;-68
2023/04/07 05:34:43;;;;;;;12.20;9.50;;;;;;;11.02;54.25;97234.41;5035454;28;20233;-70
2023/04/07 05:37:08;;;;;;;12.63;9.03;;;;;;;11.10;54.37;97241.50;5047060;28;20506;-71
2023/04/07 05:39:34;;;;;;;11.50;10.07;;;;;;;11.10;54.11;97239.69;5043499;28;20206;-70
2023/04/07 05:42:00;;;;;;;16.60;8.80;;;;;;;11.01;54.47;97238.84;5043852;28;20588;-71
2023/04/07 05:44:26;;;;;;;14.47;9.77;;;;;;;11.06;54.68;97238.38;5055199;28;20282;-70
2023/04/07 05:46:51;;;;;;;12.90;8.53;;;;;;;11.13;54.03;97242.03;5047854;28;20580;-71
2023/04/07 05:49:17;;;;;;;10.83;9.17;;;;;;;11.16;54.80;97240.88;5048827;28;20210;-70
2023/04/07 05:51:42;;;;;;;14.27;10.63;;;;;;;11.19;54.44;97244.03;5044582;28;20207;-69
2023/04/07 05:54:08;;;;;;;15.10;10.27;;;;;;;11.22;53.86;97245.50;5056821;28;20241;-70
2023/04/07 05:56:33;;;;;;;14.50;10.60;;;;;;;11.27;54.16;97245.88;5048844;28;20770;-70
2023/04/07 05:59:00;;;;;;;13.70;9.60;;;;;;;11.34;53.83;97243.47;5054458;28;20348;-69
2023/04/07 06:01:26;;;;;;;13.10;9.60;;;;;;;11.41;53.20;97241.00;5041835;28;20179;-69
2023/04/07 06:03:51;;;;;;;14.80;9.67;;;;;;;11.42;52.89;97240.03;5054647;28;20420;-69
2023/04/07 06:06:17;;;;;;;11.83;9.53;;;;;;;11.28;53.38;97249.31;5047881;28;20683;-69
2023/04/07 06:08:42;;;;;;;11.43;9.17;;;;;;;11.26;53.84;97251.28;5047105;28;20175;-69
2023/04/07 06:11:08;;;;;;;12.83;8.90;;;;;;;11.27;53.74;97251.13;5050149;28;20198;-69
2023/04/07 06:13:33;;;;;;;10.77;9.00;;;;;;;11.32;53.41;97250.66;5057454;28;20265;-69
2023/04/07 06:15:59;;;;;;;9.93;8.93;;;;;;;11.09;54.30;97245.91;5056911;28;20198;-70
2023/04/07 06:18:24;;;;;;;14.10;9.53;;;;;;;11.03;54.73;97243.94;5047931;28;20210;-69
2023/04/07 06:20:50;;;;;;;10.83;9.07;;;;;;;11.14;54.78;97248.09;5041774;28;20855;-71
2023/04/07 06:23:15;;;;;;;11.30;9.50;;;;;;;11.16;54.80;97241.72;5047694;28;20653;-71
2023/04/07 06:25:40;;;;;;;11.27;10.03;;;;;;;11.17;54.22;97245.97;5054540;28;20750;-70
2023/04/07 06:28:06;;;;;;;11.97;9.63;;;;;;;11.21;54.40;97249.91;5049983;28;20183;-69
2023/04/07 06:30:31;;;;;;;13.87;9.27;;;;;;;11.13;53.97;97249.88;5040230;28;20215;-70
2023/04/07 06:32:57;;;;;;;14.50;9.40;;;;;;;11.25;53.61;97244.38;5045625;28;20906;-70
2023/04/07 06:35:25;;;;;;;13.00;8.70;;;;;;;11.22;53.68;97250.75;5046111;28;20554;-69
2023/04/07 06:37:51;;;;;;;11.40;9.07;;;;;;;11.27;53.89;97247.66;5048005;28;20456;-69
2023/04/07 06:40:16;;;;;;;11.77;10.20;;;;;;;11.27;53.63;97242.44;5047509;28;20458;-71
2023/04/07 06:42:41;;;;;;;11.57;9.67;;;;;;;11.31;53.41;97247.19;5040312;28;20689;-69
2023/04/07 06:45:08;;;;;;;11.33;9.57;;;;;;;11.25;53.84;97250.47;5058943;28;20278;-68
2023/04/07 06:47:33;;;;;;;12.00;9.67;;;;;;;11.21;53.88;97249.13;5054756;28;20266;-69
2023/04/07 06:49:59;;;;;;;13.83;10.00;;;;;;;11.31;53.97;97238.53;5034220;28;20498;-71
2023/04/07 06:52:24;;;;;;;15.30;10.30;;;;;;;11.33;53.82;97241.81;5054067;28;20680;-69
2023/04/07 06:54:50;;;;;;;17.57;11.93;;;;;;;11.43;53.83;97239.91;5050693;28;20182;-69
2023/04/07 06:57:16;;;;;;;19.03;13.70;;;;;;;11.55;54.04;97234.38;5047273;28;20285;-70
2023/04/07 06:59:41;;;;;;;11.90;9.70;;;;;;;11.48;53.04;97242.84;5045220;28;20203;-71
2023/04/07 07:02:07;;;;;;;15.10;9.63;;;;;;;11.46;53.02;97246.63;5038611;28;20796;-69
2023/04/07 07:04:33;;;;;;;13.13;10.30;;;;;;;11.51;53.00;97239.09;5042104;28;20262;-69
2023/04/07 07:06:59;;;;;;;12.83;9.87;;;;;;;11.47;53.20;97235.16;5036427;28;20624;-69
2023/04/07 07:09:25;;;;;;;14.80;10.30;;;;;;;11.52;53.22;97240.75;5040180;28;20507;-70
2023/04/07 07:11:50;;;;;;;13.70;9.60;;;;;;;11.55;52.82;97239.59;5041146;28;20211;-69
2023/04/07 07:14:16;;;;;;;14.83;10.80;;;;;;;11.56;52.98;97230.75;5039632;28;20456;-69
2023/04/07 07:16:41;;;;;;;12.33;10.10;;;;;;;11.60;52.83;97237.31;5032840;28;20238;-69
2023/04/07 07:19:07;;;;;;;16.83;9.87;;;;;;;11.70;52.56;97238.03;5032110;28;20285;-69
2023/04/07 07:21:32;;;;;;;13.43;9.90;;;;;;;11.73;52.23;97240.31;5050517;28;20274;-71
2023/04/07 07:23:57;;;;;;;15.23;10.27;;;;;;;11.79;52.20;97244.13;5033662;28;20207;-68
2023/04/07 07:26:23;;;;;;;15.70;12.30;;;;;;;11.93;52.35;97240.06;5047806;28;20200;-71
2023/04/07 07:28:48;;;;;;;12.70;9.80;;;;;;;11.96;52.40;97245.00;5042692;28;20904;-68
2023/04/07 07:31:14;;;;;;;13.50;10.30;;;;;;;11.98;52.60;97246.53;5035963;28;20196;-70
2023/04/07 07:33:42;;;;;;;11.20;8.90;;;;;;;12.09;52.18;97242.78;5042292;28;20191;-71
2023/04/07 07:36:08;;;;;;;10.87;9.37;;;;;;;12.16;51.71;97242.13;5038231;28;20230;-70
2023/04/07 07:38:34;;;;;;;11.00;9.47;;;;;;;12.23;51.42;97241.31;5045474;28;20445;-70
2023/04/07 07:40:59;;;;;;;13.00;10.60;;;;;;;12.26;50.93;97238.38;5033860;28;20749;-71
2023/04/07 07:43:25;;;;;;;13.60;10.40;;;;;;;12.32;51.25;97246.56;5041824;28;20181;-70
2023/04/07 07:45:50;;;;;;;13.43;9.40;;;;;;;12.27;50.52;97244.44;5037083;28;20226;-69
2023/04/07 07:48:16;;;;;;;12.70;9.50;;;;;;;12.35;51.73;97244.44;5047145;28;20196;-68
2023/04/07 07:50:43;;;;;;;12.30;9.93;;;;;;;12.41;50.88;97246.44;5036903;28;20267;-70
2023/04/07 07:53:09;;;;;;;18.90;9.70;;;;;;;12.42;50.71;97248.06;5035754;28;20180;-69
2023/04/07 07:55:34;;;;;;;15.97;10.00;;;;;;;12.56;50.80;97245.78;5041775;28;20422;-70
2023/04/07 07:58:00;;;;;;;12.80;8.87;;;;;;;12.64;50.52;97251.03;5038828;28;20215;-70
2023/04/07 08:00:25;;;;;;;10.80;8.50;;;;;;;12.74;49.92;97250.88;5031007;28;20234;-69
2023/04/07 08:02:51;;;;;;;12.60;9.40;;;;;;;12.70;50.00;97247.75;5034514;28;20172;-70
2023/04/07 08:05:16;;;;;;;11.13;9.23;;;;;;;12.80;49.87;97250.22;5045117;28;20225;-71
2023/04/07 08:07:42;;;;;;;10.47;9.07;;;;;;;12.78;50.05;97243.47;5045349;28;20190;-69
2023/04/07 08:10:08;;;;;;;11.17;9.33;;;;;;;13.15;50.22;97247.38;5037672;28;20305;-68
2023/04/07 08:12:34;;;;;;;15.80;9.47;;;;;;;13.59;49.49;97249.59;5049462;28;20175;-71
2023/04/07 08:14:59;;;;;;;10.67;8.97;;;;;;;14.08;48.29;97247.72;5047215;28;20203;-70
2023/04/07 08:17:25;;;;;;;12.50;9.13;;;;;;;14.51;46.61;97253.38;5042277;28;21074;-70
2023/04/07 08:19:50;;;;;;;10.30;8.70;;;;;;;14.95;45.86;97259.00;5038244;28;20265;-69
2023/04/07 08:22:17;;;;;;;9.10;8.17;;;;;;;15.21;44.56;97258.56;5040787;28;20183;-70
2023/04/07 08:24:42;;;;;;;9.17;8.20;;;;;;;15.45;44.29;97257.50;5034586;28;20766;-70
2023/04/07 08:27:07;;;;;;;13.10;8.80;;;;;;;15.16;44.24;97260.94;5039111;28;20474;-70
2023/04/07 08:29:33;;;;;;;13.20;7.73;;;;;;;15.40;44.19;97261.69;5035902;28;20254;-69
2023/04/07 08:31:58;;;;;;;8.60;7.70;;;;;;;15.32;43.61;97255.47;5041819;28;20219;-70
2023/04/07 08:34:24;;;;;;;11.23;8.10;;;;;;;15.72;43.54;97257.84;5041952;28;20216;-71
2023/04/07 08:36:49;;;;;;;7.50;6.70;;;;;;;16.14;41.97;97250.25;5036767;28;20521;-71
2023/04/07 08:39:15;;;;;;;9.63;8.20;;;;;;;16.48;41.57;97253.22;5041808;28;20195;-70
2023/04/07 08:41:41;;;;;;;8.40;7.00;;;;;;;16.86;41.17;97250.31;5036526;28;20183;-70
2023/04/07 08:44:08;;;;;;;8.00;7.20;;;;;;;17.15;39.71;97251.97;5040710;28;20649;-70
2023/04/07 08:46:34;;;;;;;13.27;6.73;;;;;;;17.24;39.83;97244.72;5036208;28;20813;-70
2023/04/07 08:49:00;;;;;;;10.10;7.40;;;;;;;17.45;39.81;97243.00;5039531;28;20419;-70
2023/04/07 08:51:31;;;;;;;10.13;7.83;;;;;;;17.68;39.34;97247.19;5033382;28;20245;-69
2023/04/07 08:54:17;;;;;;;9.00;7.43;;;;;;;17.73;38.44;97250.06;5045575;28;20926;-71
2023/04/07 08:56:43;;;;;;;8.50;7.57;;;;;;;17.75;38.99;97253.34;5043527;28;20441;-70
2023/04/07 08:59:11;;;;;;;8.30;6.40;;;;;;;17.58;39.27;97250.22;5043819;28;20446;-69
2023/04/07 09:01:38;;;;;;;8.97;7.03;;;;;;;16.88;39.52;97251.75;5041540;28;20425;-69
2023/04/07 09:04:04;;;;;;;9.63;6.93;;;;;;;16.66;40.93;97253.59;5055105;28;20421;-70
2023/04/07 09:06:30;;;;;;;12.93;7.30;;;;;;;16.72;40.93;97255.50;5052491;28;20488;-70
2023/04/07 09:09:00;;;;;;;8.90;6.83;;;;;;;16.57;41.20;97255.53;5043723;28;20446;-69
2023/04/07 09:11:26;;;;;;;9.13;7.50;;;;;;;16.44;41.92;97263.38;5052471;28;20520;-69
2023/04/07 09:13:52;;;;;;;7.70;6.83;;;;;;;16.38;41.51;97267.56;5055916;28;20799;-69
2023/04/07 09:16:18;;;;;;;8.77;6.50;;;;;;;16.33;42.01;97271.78;5052550;28;20443;-68
2023/04/07 09:18:43;;;;;;;7.27;6.57;;;;;;;16.23;42.06;97261.53;5043802;28;20207;-69
2023/04/07 09:21:10;;;;;;;8.43;5.80;;;;;;;16.13;42.36;97262.63;5052617;28;20588;-69
2023/04/07 09:23:39;;;;;;;9.00;6.90;;;;;;;15.92;42.69;97259.94;5044661;28;20225;-69
2023/04/07 09:26:17;;;;;;;11.80;7.73;;;;;;;16.18;41.94;97258.63;5054104;28;20448;-69
2023/04/07 09:28:44;;;;;;;7.63;6.50;;;;;;;16.27;42.33;97263.59;5047515;28;20479;-71
2023/04/07 09:31:10;;;;;;;9.00;7.13;;;;;;;16.64;41.39;97249.50;5047761;28;20440;-70
2023/04/07 09:33:36;;;;;;;8.73;7.03;;;;;;;16.75;41.33;97249.00;5057223;28;20508;-70
2023/04/07 09:36:02;;;;;;;7.70;6.67;;;;;;;16.69;41.36;97252.41;5056786;28;20261;-69
2023/04/07 09:38:35;;;;;;;10.63;6.93;;;;;;;16.63;41.14;97259.28;5051380;28;20646;-70
2023/04/07 09:41:09;;;;;;;8.30;6.30;;;;;;;16.50;40.60;97256.50;5040675;28;20509;-69
2023/04/07 09:43:37;;;;;;;11.40;6.43;;;;;;;16.57;40.71;97250.25;5043187;28;20460;-69
2023/04/07 09:46:15;;;;;;;10.30;6.70;;;;;;;16.94;40.49;97250.19;5031234;28;20438;-70
2023/04/07 09:48:42;;;;;;;8.40;5.80;;;;;;;17.46;39.08;97245.44;5043610;28;20414;-71
2023/04/07 09:51:13;;;;;;;9.10;4.97;;;;;;;17.82;37.16;97248.88;5034840;28;20865;-72
2023/04/07 09:53:49;;;;;;;6.10;5.27;;;;;;;18.36;36.79;97238.47;5051941;28;20422;-70
2023/04/07 09:56:17;;;;;;;6.10;5.13;;;;;;;18.62;36.38;97242.97;5037522;28;21056;-71
2023/04/07 09:58:45;;;;;;;7.60;4.93;;;;;;;19.17;35.60;97240.16;5038261;28;20461;-70
2023/04/07 10:01:12;;;;;;;6.20;4.33;;;;;;;19.22;34.92;97242.19;5044117;28;20485;-71
2023/04/07 10:03:38;;;;;;;6.57;4.40;;;;;;;19.20;35.47;97249.56;5035230;28;20426;-71
2023/04/07 10:06:05;;;;;;;6.20;4.63;;;;;;;19.10;35.58;97244.66;5035597;28;20441;-71
2023/04/07 10:08:33;;;;;;;6.87;4.80;;;;;;;18.91;35.75;97240.13;5034319;28;20911;-71
2023/04/07 10:11:00;;;;;;;7.50;6.10;;;;;;;18.68;36.26;97247.50;5034990;28;20506;-74
2023/04/07 10:13:27;;;;;;;9.53;5.40;;;;;;;18.32;36.81;97246.03;5046835;28;20530;-75
2023/04/07 10:15:52;;;;;;;7.73;5.70;;;;;;;17.94;37.57;97249.16;5048688;28;20483;-74
2023/04/07 10:18:19;;;;;;;8.60;5.40;;;;;;;17.65;38.42;97248.41;5036296;28;20421;-74
2023/04/07 10:20:47;;;;;;;7.63;6.07;;;;;;;17.34;39.44;97247.81;5029721;28;20214;-72
2023/04/07 10:23:18;;;;;;;9.63;7.40;;;;;;;17.00;42.42;97259.19;5033515;28;20418;-73
2023/04/07 10:25:44;;;;;;;13.17;6.87;;;;;;;16.84;44.23;97273.50;5025807;28;20452;-71
2023/04/07 10:28:12;;;;;;;9.27;5.88;;;;;;;16.55;43.77;97272.63;5041943;28;20420;-70
2023/04/07 10:30:38;;;;;;;10.17;6.30;;;;;;;16.23;44.12;97272.09;5043854;28;20690;-70
2023/04/07 10:33:03;;;;;;;7.50;5.87;;;;;;;15.81;44.06;97274.44;5050555;28;20429;-72
2023/04/07 10:36:05;;;;;;;10.20;6.30;;;;;;;15.43;46.01;97275.34;5039820;28;20175;-70
2023/04/07 10:38:31;;;;;;;11.80;6.60;;;;;;;15.12;48.26;97271.00;5040378;28;20556;-70
2023/04/07 10:40:57;;;;;;;8.50;6.87;;;;;;;15.03;49.58;97277.38;5041232;28;20464;-71
2023/04/07 10:43:40;;;;;;;10.23;6.63;;;;;;;14.97;50.61;97272.84;5032759;28;20454;-71
2023/04/07 10:46:06;;;;;;;7.77;6.40;;;;;;;14.77;50.84;97277.78;5037957;28;20635;-70
2023/04/07 10:48:32;;;;;;;10.10;7.37;;;;;;;14.82;51.53;97276.25;5036397;28;20513;-71
2023/04/07 10:51:03;;;;;;;10.17;7.30;;;;;;;14.70;52.04;97269.75;5027687;28;20190;-70
2023/04/07 10:53:30;;;;;;;16.17;7.17;;;;;;;14.65;52.11;97269.41;5050069;28;20209;-70
2023/04/07 10:55:56;;;;;;;8.90;6.80;;;;;;;14.64;52.60;97278.31;5038385;28;20419;-71
2023/04/07 10:58:31;;;;;;;8.53;7.07;;;;;;;14.64;53.38;97273.03;5047103;28;20532;-71
2023/04/07 11:01:03;;;;;;;7.80;6.23;;;;;;;14.63;53.25;97269.59;5042113;28;20429;-69
2023/04/07 11:03:36;;;;;;;9.80;5.10;;;;;;;14.50;52.82;97278.09;5040152;28;20433;-70
2023/04/07 11:06:08;;;;;;;5.10;4.27;;;;;;;14.19;52.27;97278.94;5036425;28;21073;-72
2023/04/07 11:08:44;;;;;;;4.80;3.43;;;;;;;14.09;51.91;97273.91;5030258;28;20450;-71
2023/04/07 11:11:15;;;;;;;4.60;2.43;;;;;;;14.06;51.09;97276.06;5045060;28;20429;-72
2023/04/07 11:13:41;;;;;;;3.93;2.50;;;;;;;13.93;51.81;97273.97;5040193;28;20434;-70
2023/04/07 11:16:08;;;;;;;4.80;2.63;;;;;;;14.02;52.44;97280.03;5050645;28;20975;-71
2023/04/07 11:18:34;;;;;;;9.33;3.30;;;;;;;13.94;52.85;97281.72;5045874;28;20504;-69
2023/04/07 11:21:00;;;;;;;2.83;2.03;;;;;;;13.90;51.51;97283.03;5052260;28;20422;-70
2023/04/07 11:23:26;;;;;;;5.30;2.23;;;;;;;14.02;52.16;97280.88;5051724;28;20425;-73
2023/04/07 11:26:01;;;;;;;3.33;2.03;;;;;;;14.09;51.11;97283.63;5057923;28;20205;-70